Time;durP1;ratioP1;P1;durP2;ratioP2;P2;SDS_P1;SDS_P2;PMS_P1;PMS_P2;Temp;Humidity;BMP_temperature;BMP_pressure;BME280_temperature;BME280_humidity;BME280_pressure;Samples;Min_cycle;Max_cycle;Signal;HPM_P1;HPM_P2
2022/04/18 00:01:13;;;;;;;3.30;2.90;;;7.20;33.60;;;;;;5060246;28;20705;-74
2022/04/18 00:03:41;;;;;;;5.28;3.05;;;7.20;34.20;;;;;;5057194;28;20207;-75
2022/04/18 00:06:07;;;;;;;4.05;3.30;;;7.10;34.00;;;;;;5058022;28;20233;-73
2022/04/18 00:08:34;;;;;;;3.22;2.90;;;7.10;34.10;;;;;;5060091;28;20241;-74
2022/04/18 00:11:02;;;;;;;6.07;3.22;;;7.10;34.50;;;;;;5061448;28;20226;-76
2022/04/18 00:13:29;;;;;;;3.90;3.30;;;7.00;34.80;;;;;;5060231;28;20223;-73
2022/04/18 00:15:57;;;;;;;3.38;2.92;;;6.90;35.10;;;;;;5057900;28;20740;-74
2022/04/18 00:18:24;;;;;;;3.50;3.20;;;6.90;35.00;;;;;;5057908;28;20203;-74
2022/04/18 00:20:51;;;;;;;5.30;4.80;;;6.90;35.50;;;;;;5058033;28;20222;-73
2022/04/18 00:23:18;;;;;;;5.00;4.20;;;6.90;35.10;;;;;;5056998;28;20206;-74
2022/04/18 00:25:45;;;;;;;5.40;4.90;;;6.90;35.30;;;;;;5058946;28;20213;-77
2022/04/18 00:28:12;;;;;;;6.80;6.22;;;6.90;36.30;;;;;;5063938;28;20647;-75
2022/04/18 00:30:39;;;;;;;6.30;5.68;;;6.90;35.60;;;;;;5072893;28;20206;-77
2022/04/18 00:33:09;;;;;;;5.25;4.32;;;6.80;35.60;;;;;;5062674;28;20601;-76
2022/04/18 00:35:36;;;;;;;5.10;3.80;;;6.80;36.10;;;;;;5075150;28;20215;-76
2022/04/18 00:38:03;;;;;;;7.10;4.35;;;6.70;36.20;;;;;;5066937;28;20221;-76
2022/04/18 00:40:30;;;;;;;6.13;3.13;;;6.60;37.00;;;;;;5059112;28;20234;-76
2022/04/18 00:43:02;;;;;;;6.35;3.58;;;6.50;37.50;;;;;;5060509;28;20537;-77
2022/04/18 00:45:29;;;;;;;2.95;2.70;;;6.50;37.50;;;;;;5061912;28;20207;-76
2022/04/18 00:47:56;;;;;;;3.42;3.10;;;6.40;37.40;;;;;;5065683;28;20217;-77
2022/04/18 00:50:26;;;;;;;3.97;3.13;;;6.40;37.40;;;;;;5064429;28;20242;-76
2022/04/18 00:52:54;;;;;;;5.13;3.63;;;6.30;37.80;;;;;;5067095;28;20731;-76
2022/04/18 00:55:22;;;;;;;3.30;3.00;;;6.30;38.10;;;;;;5063131;28;20241;-77
2022/04/18 00:57:50;;;;;;;4.68;3.15;;;6.20;38.60;;;;;;5059404;28;20206;-76
2022/04/18 01:00:17;;;;;;;4.10;3.10;;;6.20;38.90;;;;;;5066813;28;20245;-75
2022/04/18 01:02:44;;;;;;;3.90;2.78;;;6.20;39.30;;;;;;5069789;28;20210;-75
2022/04/18 01:05:12;;;;;;;3.00;2.80;;;6.10;39.30;;;;;;5066717;28;20209;-76
2022/04/18 01:07:40;;;;;;;3.55;2.80;;;6.10;39.50;;;;;;5068379;28;20274;-75
2022/04/18 01:10:08;;;;;;;3.15;2.85;;;6.10;39.80;;;;;;5058541;28;20635;-76
2022/04/18 01:12:35;;;;;;;2.92;2.67;;;6.10;39.70;;;;;;5057050;28;20206;-76
2022/04/18 01:15:03;;;;;;;3.40;3.10;;;6.10;39.50;;;;;;5058228;28;20221;-77
2022/04/18 01:17:30;;;;;;;5.40;3.67;;;6.00;39.60;;;;;;5077333;28;20262;-72
2022/04/18 01:19:57;;;;;;;6.20;3.20;;;5.90;40.10;;;;;;5078614;28;20245;-72
2022/04/18 01:22:25;;;;;;;3.28;3.05;;;5.90;40.60;;;;;;5074570;28;20203;-77
2022/04/18 01:30:20;;;;;;;4.65;2.70;;;5.80;40.70;;;;;;5058473;28;20319;-77
2022/04/18 01:32:47;;;;;;;3.70;2.60;;;5.70;41.00;;;;;;5055753;28;20206;-75
2022/04/18 01:35:14;;;;;;;3.58;2.92;;;5.60;41.50;;;;;;5055310;28;20212;-75
2022/04/18 01:37:42;;;;;;;5.10;3.03;;;5.60;41.60;;;;;;5055072;28;20206;-75
2022/04/18 01:40:10;;;;;;;3.22;2.92;;;5.50;41.60;;;;;;5055501;28;20309;-75
2022/04/18 01:42:37;;;;;;;4.13;3.35;;;5.40;41.60;;;;;;5062091;28;20601;-78
2022/04/18 01:45:04;;;;;;;4.75;3.20;;;5.40;41.60;;;;;;5061801;28;20581;-75
2022/04/18 01:47:31;;;;;;;3.53;3.20;;;5.40;41.60;;;;;;5054750;28;20210;-77
2022/04/18 01:49:58;;;;;;;6.22;3.20;;;5.40;42.10;;;;;;5054175;28;20321;-75
2022/04/18 01:52:25;;;;;;;3.50;3.20;;;5.30;42.90;;;;;;5054944;28;20579;-75
2022/04/18 01:54:53;;;;;;;6.60;3.55;;;5.20;43.70;;;;;;5054930;28;20317;-76
2022/04/18 01:57:20;;;;;;;6.15;3.25;;;5.20;44.40;;;;;;5054182;28;20643;-75
2022/04/18 01:59:47;;;;;;;4.13;3.50;;;5.10;46.00;;;;;;5054112;28;20214;-75
2022/04/18 02:02:14;;;;;;;3.65;3.20;;;5.00;45.90;;;;;;5054901;28;20246;-74
2022/04/18 02:04:42;;;;;;;4.00;3.70;;;5.00;45.90;;;;;;5054600;28;20236;-73
2022/04/18 02:07:10;;;;;;;8.43;3.70;;;5.00;45.90;;;;;;5054630;28;20215;-74
2022/04/18 02:09:37;;;;;;;6.10;4.05;;;5.00;45.90;;;;;;5053685;28;20237;-76
2022/04/18 02:12:07;;;;;;;4.40;3.63;;;5.00;45.90;;;;;;5055393;28;20301;-76
2022/04/18 02:14:34;;;;;;;4.13;3.78;;;5.10;46.00;;;;;;5055506;28;20234;-77
2022/04/18 02:17:01;;;;;;;5.00;4.10;;;5.20;45.40;;;;;;5055777;28;20202;-77
2022/04/18 02:19:28;;;;;;;4.03;3.55;;;5.30;43.60;;;;;;5056539;28;20237;-77
2022/04/18 02:21:55;;;;;;;3.90;3.50;;;5.40;43.00;;;;;;5055910;28;20219;-74
2022/04/18 02:24:21;;;;;;;5.72;3.78;;;5.50;42.10;;;;;;5054743;28;20573;-74
2022/04/18 02:26:48;;;;;;;4.70;3.75;;;5.50;41.50;;;;;;5054714;28;20206;-73
2022/04/18 02:29:16;;;;;;;4.25;3.40;;;5.60;41.60;;;;;;5054150;28;20211;-74
2022/04/18 02:34:28;;;;;;;4.57;3.28;;;5.60;41.50;;;;;;5065335;28;20724;-77
2022/04/18 02:36:55;;;;;;;4.45;4.05;;;5.50;41.10;;;;;;5064407;28;20223;-75
2022/04/18 02:39:22;;;;;;;6.25;4.07;;;5.50;41.40;;;;;;5067837;28;20212;-75
2022/04/18 02:41:49;;;;;;;4.82;3.65;;;5.50;41.50;;;;;;5072123;28;20222;-76
2022/04/18 02:44:17;;;;;;;4.97;3.95;;;5.50;41.50;;;;;;5070434;28;20202;-76
2022/04/18 02:46:44;;;;;;;5.68;4.10;;;5.50;41.50;;;;;;5068525;28;20202;-78
2022/04/18 02:49:11;;;;;;;6.22;4.05;;;5.50;41.50;;;;;;5061460;28;20206;-77
2022/04/18 02:51:38;;;;;;;5.28;4.25;;;5.50;41.50;;;;;;5068315;28;20286;-76
2022/04/18 02:54:05;;;;;;;4.97;3.80;;;5.50;41.50;;;;;;5071418;28;20226;-76
2022/04/18 02:56:31;;;;;;;6.30;3.65;;;5.40;41.80;;;;;;5074032;28;20214;-76
2022/04/18 02:58:59;;;;;;;4.45;4.05;;;5.40;42.10;;;;;;5074699;28;20194;-73
2022/04/18 03:01:35;;;;;;;6.50;4.32;;;5.30;42.70;;;;;;5074307;28;20230;-77
2022/04/18 03:04:13;;;;;;;4.32;3.92;;;5.20;42.90;;;;;;5075234;28;20271;-77
2022/04/18 03:06:56;;;;;;;4.78;3.67;;;5.20;43.40;;;;;;5074212;28;20216;-76
2022/04/18 03:12:45;;;;;;;6.43;3.97;;;5.00;44.30;;;;;;5073072;28;20254;-76
2022/04/18 03:15:12;;;;;;;5.57;4.82;;;5.00;44.90;;;;;;5068751;28;20234;-75
2022/04/18 03:17:41;;;;;;;5.68;4.00;;;5.10;44.30;;;;;;5067668;28;20667;-77
2022/04/18 03:20:09;;;;;;;4.47;4.07;;;5.10;44.10;;;;;;5054424;28;20230;-77
2022/04/18 03:22:36;;;;;;;4.43;4.00;;;5.10;44.00;;;;;;5055637;28;20584;-75
2022/04/18 03:25:08;;;;;;;5.75;4.38;;;5.00;44.10;;;;;;5069176;28;20279;-75
2022/04/18 03:27:37;;;;;;;4.45;4.05;;;5.00;44.50;;;;;;5071281;28;20286;-76
2022/04/18 03:30:05;;;;;;;7.03;4.28;;;4.80;44.90;;;;;;5068460;28;20583;-77
2022/04/18 03:32:32;;;;;;;4.78;4.20;;;4.70;45.60;;;;;;5059568;28;20206;-74
2022/04/18 03:35:01;;;;;;;5.63;4.38;;;4.70;45.60;;;;;;5057464;28;20667;-75
2022/04/18 03:40:12;;;;;;;5.55;3.88;;;4.70;45.60;;;;;;5056729;28;20224;-74
2022/04/18 03:42:39;;;;;;;6.47;5.03;;;4.80;44.80;;;;;;5057316;28;20213;-74
2022/04/18 03:45:07;;;;;;;6.20;5.18;;;4.80;44.80;;;;;;5054310;28;20638;-74
2022/04/18 03:47:34;;;;;;;5.43;4.38;;;4.80;44.60;;;;;;5058465;28;20221;-74
2022/04/18 03:50:03;;;;;;;6.22;4.60;;;4.80;44.20;;;;;;5058138;28;20238;-74
2022/04/18 03:52:32;;;;;;;5.82;4.47;;;4.80;44.70;;;;;;5057221;28;20246;-77
2022/04/18 03:54:59;;;;;;;6.28;5.20;;;4.80;45.30;;;;;;5057785;28;20225;-73
2022/04/18 03:57:26;;;;;;;8.60;4.15;;;4.80;45.20;;;;;;5057284;28;20221;-76
2022/04/18 03:59:53;;;;;;;5.88;4.38;;;4.80;45.00;;;;;;5057163;28;20313;-76
2022/04/18 04:02:20;;;;;;;4.80;4.15;;;4.80;45.70;;;;;;5057042;28;20207;-73
2022/04/18 04:04:47;;;;;;;5.35;4.03;;;4.80;45.70;;;;;;5056883;28;20202;-77
2022/04/18 04:07:15;;;;;;;7.35;4.50;;;4.70;45.60;;;;;;5058591;28;20297;-77
2022/04/18 04:09:42;;;;;;;4.55;4.15;;;4.60;45.50;;;;;;5056649;28;20305;-75
2022/04/18 04:12:09;;;;;;;4.07;3.75;;;4.60;45.50;;;;;;5058323;28;20249;-76
2022/04/18 04:14:36;;;;;;;4.72;4.18;;;4.50;45.50;;;;;;5058223;28;20237;-78
2022/04/18 04:17:03;;;;;;;5.60;4.10;;;4.50;45.90;;;;;;5057440;28;20203;-76
2022/04/18 04:19:30;;;;;;;4.93;4.40;;;4.40;46.70;;;;;;5056384;28;20284;-75
2022/04/18 04:21:57;;;;;;;7.78;4.45;;;4.40;47.10;;;;;;5057708;28;20230;-77
2022/04/18 04:24:26;;;;;;;5.20;4.57;;;4.30;47.10;;;;;;5060215;28;20202;-77
2022/04/18 04:26:53;;;;;;;4.70;4.20;;;4.20;47.80;;;;;;5058437;28;20274;-77
2022/04/18 04:29:20;;;;;;;8.63;4.55;;;4.20;48.00;;;;;;5058268;28;20210;-77
2022/04/18 04:31:47;;;;;;;4.88;4.38;;;4.10;48.10;;;;;;5056233;28;20237;-73
2022/04/18 04:34:14;;;;;;;5.40;4.90;;;4.10;48.50;;;;;;5055583;28;20309;-74
2022/04/18 04:36:42;;;;;;;5.10;3.92;;;4.10;48.90;;;;;;5055533;28;20237;-75
2022/04/18 04:39:09;;;;;;;7.03;4.40;;;4.10;48.70;;;;;;5055726;28;20214;-74
2022/04/18 04:41:38;;;;;;;4.90;4.32;;;4.00;49.10;;;;;;5056541;28;20234;-74
2022/04/18 04:44:06;;;;;;;5.15;4.65;;;4.00;49.50;;;;;;5057195;28;20652;-75
2022/04/18 04:46:34;;;;;;;5.00;4.50;;;4.00;49.70;;;;;;5056795;28;20264;-76
2022/04/18 04:49:02;;;;;;;4.70;3.75;;;4.00;49.80;;;;;;5056249;28;20261;-74
2022/04/18 04:51:30;;;;;;;5.10;4.40;;;4.00;49.80;;;;;;5056408;28;20271;-76
2022/04/18 04:53:56;;;;;;;5.47;4.10;;;4.00;49.60;;;;;;5057357;28;20202;-76
2022/04/18 04:56:25;;;;;;;5.18;4.70;;;4.10;49.30;;;;;;5056041;28;20282;-74
2022/04/18 04:58:54;;;;;;;4.60;4.15;;;4.20;49.00;;;;;;5054754;28;20203;-74
2022/04/18 05:01:21;;;;;;;5.22;4.22;;;4.60;49.20;;;;;;5056960;28;20253;-74
2022/04/18 05:03:48;;;;;;;4.45;4.05;;;5.20;46.10;;;;;;5056263;28;20213;-74
2022/04/18 05:06:15;;;;;;;4.88;3.67;;;5.80;43.40;;;;;;5058502;28;20230;-75
2022/04/18 05:08:42;;;;;;;4.45;3.33;;;6.30;41.70;;;;;;5059553;28;20211;-74
2022/04/18 05:11:09;;;;;;;3.92;3.50;;;6.90;39.30;;;;;;5064411;28;20236;-77
2022/04/18 05:13:36;;;;;;;4.82;3.90;;;7.30;38.10;;;;;;5070055;28;20241;-75
2022/04/18 05:16:04;;;;;;;4.10;3.53;;;7.40;38.20;;;;;;5072505;28;20223;-76
2022/04/18 05:18:32;;;;;;;4.85;3.85;;;7.50;36.70;;;;;;5074659;28;20262;-75
2022/04/18 05:20:59;;;;;;;3.97;3.22;;;7.80;36.00;;;;;;5073424;28;20253;-77
2022/04/18 05:23:26;;;;;;;4.35;3.95;;;8.20;34.70;;;;;;5060597;28;20568;-77
2022/04/18 05:25:52;;;;;;;5.05;3.33;;;8.60;33.20;;;;;;5057405;28;20198;-76
2022/04/18 05:28:19;;;;;;;4.82;3.70;;;8.60;33.50;;;;;;5057849;28;20214;-77
2022/04/18 05:30:47;;;;;;;4.78;4.07;;;8.70;34.10;;;;;;5058402;28;20252;-77
2022/04/18 05:33:16;;;;;;;4.72;3.58;;;8.90;32.00;;;;;;5072570;28;20186;-72
2022/04/18 05:35:43;;;;;;;4.00;3.60;;;9.00;32.10;;;;;;5078449;28;20210;-72
2022/04/18 05:38:09;;;;;;;4.70;3.75;;;8.70;32.10;;;;;;5077751;28;20191;-72
2022/04/18 05:40:36;;;;;;;4.10;3.28;;;8.40;32.20;;;;;;5075556;28;20225;-75
2022/04/18 05:43:03;;;;;;;3.78;3.35;;;8.40;31.30;;;;;;5074787;28;20202;-74
2022/04/18 05:45:33;;;;;;;4.15;3.70;;;8.50;31.40;;;;;;5074470;28;20201;-75
2022/04/18 05:48:00;;;;;;;3.42;3.13;;;8.50;30.70;;;;;;5072442;28;20214;-77
2022/04/18 05:50:29;;;;;;;6.35;3.50;;;8.80;29.60;;;;;;5073324;28;20234;-73
2022/04/18 05:52:55;;;;;;;3.08;2.55;;;8.90;29.70;;;;;;5070809;28;20194;-75
2022/04/18 05:55:22;;;;;;;4.57;3.72;;;8.90;29.70;;;;;;5070178;28;20226;-75
2022/04/18 05:57:52;;;;;;;4.22;3.53;;;8.60;29.50;;;;;;5058437;28;20217;-76
2022/04/18 06:00:19;;;;;;;3.47;3.00;;;8.60;29.50;;;;;;5055853;28;20230;-76
2022/04/18 06:02:46;;;;;;;4.75;4.07;;;8.60;29.50;;;;;;5058016;28;20225;-77
2022/04/18 06:05:13;;;;;;;3.80;3.35;;;8.80;29.60;;;;;;5057558;28;20214;-76
2022/04/18 06:07:42;;;;;;;4.40;3.38;;;8.80;29.60;;;;;;5059912;28;20207;-75
2022/04/18 06:10:10;;;;;;;3.22;2.92;;;9.00;29.30;;;;;;5064455;28;20261;-75
2022/04/18 06:12:37;;;;;;;3.38;3.08;;;9.00;28.90;;;;;;5070749;28;20218;-76
2022/04/18 06:15:04;;;;;;;2.92;2.72;;;9.00;28.60;;;;;;5071485;28;20286;-75
2022/04/18 06:17:31;;;;;;;5.00;3.35;;;8.80;29.60;;;;;;5070359;28;20214;-74
2022/04/18 06:19:58;;;;;;;3.95;3.60;;;8.80;29.60;;;;;;5060233;28;20242;-75
2022/04/18 06:22:25;;;;;;;4.43;3.40;;;8.70;29.60;;;;;;5058934;28;20210;-74
2022/04/18 06:24:53;;;;;;;3.75;3.17;;;8.30;29.30;;;;;;5062735;28;20198;-75
2022/04/18 06:27:20;;;;;;;4.82;3.35;;;8.20;29.20;;;;;;5059109;28;20260;-76
2022/04/18 06:29:47;;;;;;;5.78;3.78;;;8.30;29.50;;;;;;5056791;28;20227;-74
2022/04/18 06:32:14;;;;;;;3.40;3.10;;;8.20;29.30;;;;;;5057278;28;20689;-73
2022/04/18 06:34:42;;;;;;;4.15;3.13;;;8.30;30.00;;;;;;5056244;28;20257;-75
2022/04/18 06:37:08;;;;;;;4.72;3.88;;;8.30;29.60;;;;;;5056551;28;20245;-74
2022/04/18 06:39:36;;;;;;;4.32;3.40;;;8.30;30.00;;;;;;5055797;28;20282;-74
2022/04/18 06:42:05;;;;;;;3.35;3.00;;;8.30;29.40;;;;;;5056376;28;20808;-74
2022/04/18 06:44:32;;;;;;;4.20;3.33;;;8.40;29.40;;;;;;5070163;28;20209;-75
2022/04/18 06:46:59;;;;;;;4.35;3.53;;;8.50;29.40;;;;;;5067374;28;20206;-76
2022/04/18 06:49:26;;;;;;;3.45;3.15;;;8.40;29.40;;;;;;5055350;28;20261;-76
2022/04/18 06:51:53;;;;;;;10.77;3.50;;;8.40;29.40;;;;;;5056207;28;20241;-76
2022/04/18 06:54:20;;;;;;;4.03;3.05;;;8.60;29.50;;;;;;5064700;28;20273;-76
2022/04/18 06:57:01;;;;;;;4.57;3.17;;;8.70;29.60;;;;;;5057685;28;20210;-76
2022/04/18 06:59:30;;;;;;;5.43;4.25;;;8.70;29.60;;;;;;5055517;28;20724;-77
2022/04/18 07:01:58;;;;;;;5.07;3.88;;;8.80;29.60;;;;;;5065458;28;20226;-76
2022/04/18 07:04:26;;;;;;;9.07;3.70;;;9.00;29.80;;;;;;5067035;28;20206;-75
2022/04/18 07:06:53;;;;;;;3.60;3.30;;;9.00;29.30;;;;;;5056984;28;20682;-76
2022/04/18 07:09:20;;;;;;;4.25;3.63;;;9.20;29.20;;;;;;5055394;28;20249;-76
2022/04/18 07:11:47;;;;;;;6.22;3.40;;;9.10;29.40;;;;;;5055268;28;20226;-76
2022/04/18 07:14:14;;;;;;;5.07;3.35;;;9.20;28.20;;;;;;5055229;28;20224;-76
2022/04/18 07:16:45;;;;;;;3.53;3.22;;;9.30;28.90;;;;;;5055484;28;20234;-76
2022/04/18 07:19:12;;;;;;;3.17;2.97;;;9.30;30.00;;;;;;5055408;28;20207;-76
2022/04/18 07:21:41;;;;;;;3.95;3.53;;;9.40;28.10;;;;;;5056873;28;20313;-76
2022/04/18 07:24:11;;;;;;;4.32;3.70;;;9.50;27.70;;;;;;5061977;28;20214;-77
2022/04/18 07:26:38;;;;;;;4.32;3.22;;;9.60;27.50;;;;;;5065692;28;20221;-77
2022/04/18 07:29:05;;;;;;;6.38;3.88;;;9.70;27.10;;;;;;5067785;28;20283;-77
2022/04/18 07:31:32;;;;;;;4.75;3.50;;;9.80;27.00;;;;;;5069426;28;20230;-77
2022/04/18 07:34:01;;;;;;;3.30;3.00;;;10.00;26.60;;;;;;5072840;28;20220;-76
2022/04/18 07:36:28;;;;;;;3.70;3.35;;;10.00;25.80;;;;;;5076494;28;20233;-77
2022/04/18 07:38:55;;;;;;;4.03;3.63;;;10.10;26.80;;;;;;5071676;28;20573;-74
2022/04/18 07:41:24;;;;;;;6.38;3.80;;;10.30;26.90;;;;;;5075961;28;20227;-75
2022/04/18 07:43:52;;;;;;;4.07;3.67;;;10.40;26.80;;;;;;5079005;28;20190;-76
2022/04/18 07:46:19;;;;;;;5.05;3.70;;;10.60;26.50;;;;;;5079352;28;20214;-77
2022/04/18 07:48:47;;;;;;;4.38;3.67;;;10.60;26.20;;;;;;5080321;28;20250;-77
2022/04/18 07:51:36;;;;;;;4.05;3.53;;;10.60;26.90;;;;;;5078258;28;20226;-74
2022/04/18 07:54:23;;;;;;;4.00;3.50;;;10.70;26.80;;;;;;5073125;28;20229;-76
2022/04/18 07:56:51;;;;;;;4.03;3.65;;;10.90;25.90;;;;;;5063120;28;20226;-77
2022/04/18 07:59:30;;;;;;;4.57;3.35;;;11.00;26.20;;;;;;5065315;28;20203;-76
2022/04/18 08:01:57;;;;;;;4.35;3.40;;;11.10;26.40;;;;;;5061622;28;20244;-75
2022/04/18 08:04:24;;;;;;;5.07;4.15;;;11.40;25.70;;;;;;5063340;28;20308;-75
2022/04/18 08:06:52;;;;;;;3.95;3.55;;;11.50;24.80;;;;;;5066246;28;20211;-76
2022/04/18 08:09:19;;;;;;;3.97;3.15;;;11.60;25.00;;;;;;5064644;28;20206;-76
2022/04/18 08:11:46;;;;;;;3.67;3.35;;;11.60;24.90;;;;;;5069578;28;20230;-76
2022/04/18 08:14:14;;;;;;;4.85;3.65;;;11.70;25.30;;;;;;5068463;28;20294;-73
2022/04/18 08:16:41;;;;;;;4.80;3.08;;;11.80;24.40;;;;;;5067023;28;20227;-74
2022/04/18 08:19:08;;;;;;;4.22;3.83;;;11.80;25.20;;;;;;5065194;28;20241;-73
2022/04/18 08:21:35;;;;;;;6.93;3.85;;;11.90;25.50;;;;;;5063011;28;20299;-75
2022/04/18 08:24:03;;;;;;;6.43;3.65;;;12.10;24.90;;;;;;5060573;28;20246;-73
2022/04/18 08:26:30;;;;;;;5.72;3.97;;;12.00;24.40;;;;;;5065545;28;20214;-77
2022/04/18 08:28:57;;;;;;;4.20;3.45;;;12.00;23.10;;;;;;5061011;28;20238;-74
2022/04/18 08:31:25;;;;;;;5.22;3.40;;;12.00;23.60;;;;;;5056819;28;20226;-73
2022/04/18 08:33:52;;;;;;;4.68;3.65;;;12.30;23.30;;;;;;5058189;28;20211;-74
2022/04/18 08:36:19;;;;;;;7.45;3.70;;;12.30;23.30;;;;;;5058485;28;20226;-75
2022/04/18 08:38:46;;;;;;;4.53;3.60;;;12.40;23.40;;;;;;5063858;28;20202;-76
2022/04/18 08:41:21;;;;;;;4.68;3.40;;;12.50;23.50;;;;;;5059831;28;20318;-74
2022/04/18 08:43:48;;;;;;;4.30;3.50;;;12.60;23.60;;;;;;5057374;28;20198;-74
2022/04/18 08:46:16;;;;;;;4.28;3.22;;;12.70;23.60;;;;;;5057504;28;20567;-73
2022/04/18 08:54:14;;;;;;;3.78;3.47;;;12.80;23.70;;;;;;5057534;28;20295;-73
2022/04/18 08:56:43;;;;;;;3.60;3.30;;;12.90;23.30;;;;;;5062342;28;20796;-74
2022/04/18 08:59:10;;;;;;;4.68;3.88;;;13.00;23.50;;;;;;5065371;28;20210;-74
2022/04/18 09:01:47;;;;;;;4.30;3.65;;;12.90;23.80;;;;;;5059727;28;20226;-74
2022/04/18 09:04:14;;;;;;;5.43;4.00;;;13.20;23.10;;;;;;5069448;28;20214;-75
2022/04/18 09:06:41;;;;;;;5.28;3.20;;;13.40;22.20;;;;;;5068058;28;20209;-75
2022/04/18 09:09:08;;;;;;;3.97;3.60;;;13.60;22.40;;;;;;5056631;28;20230;-75
2022/04/18 09:11:37;;;;;;;5.10;4.13;;;13.70;23.00;;;;;;5060693;28;20325;-76
2022/04/18 09:14:06;;;;;;;3.38;3.00;;;13.50;21.80;;;;;;5059821;28;20451;-76
2022/04/18 09:16:34;;;;;;;3.50;3.20;;;13.70;22.10;;;;;;5067965;28;20327;-75
2022/04/18 09:19:06;;;;;;;3.63;3.33;;;13.90;21.50;;;;;;5064970;28;20639;-76
2022/04/18 09:21:33;;;;;;;3.80;3.43;;;13.90;21.80;;;;;;5057245;28;20476;-77
2022/04/18 09:24:00;;;;;;;4.07;3.40;;;14.00;21.10;;;;;;5056690;28;20457;-76
2022/04/18 09:26:27;;;;;;;5.07;3.20;;;13.80;20.60;;;;;;5058672;28;20207;-78
2022/04/18 09:29:04;;;;;;;3.90;3.30;;;13.90;20.80;;;;;;5056615;28;20412;-75
2022/04/18 09:31:39;;;;;;;4.23;3.53;;;13.80;21.10;;;;;;5055957;28;20313;-76
2022/04/18 09:34:07;;;;;;;4.17;3.23;;;13.90;20.70;;;;;;5056777;28;20484;-76
2022/04/18 09:36:33;;;;;;;5.63;3.53;;;13.80;21.20;;;;;;5062640;28;20480;-76
2022/04/18 09:39:00;;;;;;;3.70;3.20;;;13.90;20.30;;;;;;5065485;28;20453;-76
2022/04/18 09:41:29;;;;;;;4.97;3.63;;;14.10;21.10;;;;;;5064269;28;20504;-77
2022/04/18 09:43:57;;;;;;;4.97;3.33;;;14.30;21.10;;;;;;5066686;28;20441;-76
2022/04/18 09:46:24;;;;;;;3.60;3.30;;;14.50;19.60;;;;;;5066233;28;20445;-76
2022/04/18 09:49:00;;;;;;;4.03;3.40;;;14.40;20.00;;;;;;5058826;28;20532;-77
2022/04/18 09:51:29;;;;;;;4.50;3.27;;;14.60;20.30;;;;;;5056006;28;20466;-75
2022/04/18 09:53:57;;;;;;;7.07;3.47;;;14.80;19.60;;;;;;5056397;28;20485;-75
2022/04/18 09:56:26;;;;;;;4.27;3.33;;;15.00;19.00;;;;;;5056194;28;20523;-76
2022/04/18 09:58:55;;;;;;;3.50;3.20;;;14.90;19.60;;;;;;5068965;28;20435;-76
2022/04/18 10:01:22;;;;;;;4.87;3.30;;;14.80;19.10;;;;;;5061425;28;20455;-77
2022/04/18 10:03:52;;;;;;;4.27;3.30;;;14.90;19.40;;;;;;5068187;28;20740;-76
2022/04/18 10:06:20;;;;;;;3.80;3.33;;;14.90;18.60;;;;;;5063421;28;20525;-76
2022/04/18 10:08:47;;;;;;;5.07;3.33;;;14.60;19.20;;;;;;5056404;28;20427;-76
2022/04/18 10:11:14;;;;;;;5.53;3.70;;;14.90;18.70;;;;;;5055644;28;21025;-76
2022/04/18 10:13:41;;;;;;;4.27;3.87;;;14.70;19.00;;;;;;5055502;28;20763;-75
2022/04/18 10:16:08;;;;;;;3.63;3.23;;;14.80;19.10;;;;;;5060397;28;20455;-76
2022/04/18 10:18:44;;;;;;;6.40;3.27;;;15.10;19.10;;;;;;5068214;28;20475;-76
2022/04/18 10:21:26;;;;;;;3.20;3.00;;;15.00;18.60;;;;;;5063256;28;20453;-75
2022/04/18 10:24:35;;;;;;;3.30;3.00;;;15.10;17.10;;;;;;5054047;28;20480;-74
2022/04/18 10:27:38;;;;;;;2.90;2.70;;;15.10;17.10;;;;;;5053250;28;20431;-74
2022/04/18 10:30:07;;;;;;;3.93;3.53;;;14.80;17.50;;;;;;5039512;28;20506;-77
2022/04/18 10:32:37;;;;;;;3.10;2.80;;;15.10;17.70;;;;;;5054272;28;20431;-76
2022/04/18 10:35:06;;;;;;;3.90;3.00;;;15.50;17.50;;;;;;5055201;28;20428;-76
2022/04/18 10:37:34;;;;;;;3.63;3.27;;;15.20;17.20;;;;;;5055100;28;20819;-74
2022/04/18 10:40:05;;;;;;;3.67;3.00;;;15.20;17.20;;;;;;5058500;28;20451;-75
2022/04/18 10:42:34;;;;;;;5.97;2.93;;;15.40;17.30;;;;;;5055358;28;20435;-75
2022/04/18 10:45:08;;;;;;;4.00;2.97;;;15.60;17.20;;;;;;5056322;28;20496;-75
2022/04/18 10:48:06;;;;;;;3.50;2.83;;;15.40;17.00;;;;;;5058146;28;20535;-76
2022/04/18 10:50:38;;;;;;;3.50;3.00;;;15.60;17.50;;;;;;5043383;28;20489;-77
2022/04/18 10:53:36;;;;;;;4.97;3.80;;;15.70;17.50;;;;;;5055207;28;20935;-75
2022/04/18 10:56:13;;;;;;;4.80;3.40;;;15.60;17.50;;;;;;5056003;28;20531;-75
2022/04/18 10:58:45;;;;;;;4.00;3.30;;;15.80;17.70;;;;;;5059758;28;20974;-73
2022/04/18 11:01:15;;;;;;;6.63;3.53;;;15.90;17.70;;;;;;5066552;28;20914;-74
2022/04/18 11:03:59;;;;;;;4.50;3.43;;;16.10;17.10;;;;;;5064619;28;20488;-76
2022/04/18 11:06:49;;;;;;;2.97;2.60;;;16.10;17.80;;;;;;5058996;28;20802;-73
2022/04/18 11:09:21;;;;;;;2.90;2.63;;;15.60;16.30;;;;;;5058759;28;20941;-74
2022/04/18 11:11:53;;;;;;;3.30;2.90;;;15.80;17.00;;;;;;5059424;28;20487;-75
2022/04/18 11:14:23;;;;;;;4.90;3.30;;;15.90;16.70;;;;;;5058184;28;20948;-75
2022/04/18 11:16:56;;;;;;;3.67;3.10;;;15.90;17.10;;;;;;5058603;28;20500;-77
2022/04/18 11:19:27;;;;;;;2.50;2.30;;;15.90;17.30;;;;;;5058532;28;20464;-76
2022/04/18 11:22:20;;;;;;;3.73;2.67;;;15.80;15.00;;;;;;5058321;28;20484;-75
2022/04/18 11:25:03;;;;;;;3.33;2.80;;;15.70;16.00;;;;;;5060105;28;20531;-75
2022/04/18 11:27:37;;;;;;;4.57;3.77;;;16.30;16.00;;;;;;5070295;28;20436;-75
2022/04/18 11:30:10;;;;;;;5.20;2.80;;;16.70;15.20;;;;;;5076522;28;20458;-75
2022/04/18 11:32:39;;;;;;;4.00;3.23;;;17.00;15.70;;;;;;5080329;28;20415;-74
2022/04/18 11:35:08;;;;;;;3.00;2.70;;;16.50;16.90;;;;;;5080695;28;20437;-74
2022/04/18 11:37:39;;;;;;;3.77;3.23;;;16.40;16.40;;;;;;5080308;28;20507;-74
2022/04/18 11:40:09;;;;;;;5.93;3.00;;;16.30;17.60;;;;;;5076661;28;20482;-76
2022/04/18 11:42:37;;;;;;;3.20;2.90;;;16.70;16.30;;;;;;5058664;28;20879;-76
2022/04/18 11:45:05;;;;;;;4.73;3.40;;;16.60;16.50;;;;;;5058574;28;20456;-75
2022/04/18 11:47:38;;;;;;;4.93;3.47;;;16.30;16.60;;;;;;5059927;28;20445;-76
2022/04/18 11:50:07;;;;;;;4.40;3.40;;;16.30;18.00;;;;;;5061364;28;20473;-74
2022/04/18 11:52:36;;;;;;;3.30;3.00;;;16.30;16.60;;;;;;5062461;28;20460;-75
2022/04/18 11:55:05;;;;;;;5.03;3.20;;;16.00;17.80;;;;;;5069829;28;20443;-75
2022/04/18 11:57:36;;;;;;;3.80;2.97;;;16.30;17.20;;;;;;5071453;28;20482;-75
2022/04/18 12:00:05;;;;;;;3.80;3.10;;;16.10;17.80;;;;;;5071424;28;20469;-76
2022/04/18 12:08:04;;;;;;;5.33;3.70;;;16.70;16.80;;;;;;5072659;28;20443;-76
2022/04/18 12:10:33;;;;;;;3.93;3.63;;;16.60;17.60;;;;;;5067792;28;20473;-73
2022/04/18 12:13:05;;;;;;;6.53;3.70;;;16.80;16.50;;;;;;5070836;28;20800;-73
2022/04/18 12:15:32;;;;;;;3.93;3.13;;;16.60;17.90;;;;;;5073567;28;20465;-74
2022/04/18 12:18:07;;;;;;;4.57;3.70;;;16.90;16.80;;;;;;5073054;28;20460;-77
2022/04/18 12:20:34;;;;;;;4.53;3.27;;;16.60;17.20;;;;;;5072173;28;20476;-73
2022/04/18 12:23:02;;;;;;;3.83;3.40;;;16.60;17.60;;;;;;5072472;28;20451;-76
2022/04/18 12:25:31;;;;;;;4.50;3.67;;;16.40;17.10;;;;;;5075363;28;20431;-75
2022/04/18 12:28:01;;;;;;;5.00;3.40;;;16.50;18.10;;;;;;5061454;28;20492;-76
2022/04/18 12:30:28;;;;;;;4.60;3.73;;;16.70;16.90;;;;;;5061524;28;20504;-76
2022/04/18 12:32:55;;;;;;;8.70;3.40;;;16.90;17.10;;;;;;5068640;28;20453;-76
2022/04/18 12:35:39;;;;;;;5.60;3.53;;;16.90;17.30;;;;;;5058210;28;20477;-76
2022/04/18 12:38:07;;;;;;;3.60;3.30;;;16.60;17.40;;;;;;5058228;28;21018;-75
2022/04/18 12:40:36;;;;;;;3.77;3.30;;;16.80;17.70;;;;;;5058081;28;20477;-75
2022/04/18 12:43:12;;;;;;;5.43;3.57;;;16.70;18.30;;;;;;5057768;28;20453;-74
2022/04/18 12:45:58;;;;;;;5.60;3.80;;;17.00;17.50;;;;;;5060684;28;20487;-77
2022/04/18 12:48:26;;;;;;;4.40;4.00;;;17.00;17.20;;;;;;5056837;28;20453;-74
2022/04/18 12:50:55;;;;;;;5.20;3.57;;;17.20;16.30;;;;;;5057457;28;20484;-76
2022/04/18 12:53:43;;;;;;;4.90;3.80;;;17.20;16.50;;;;;;5056868;28;20448;-74
2022/04/18 12:56:10;;;;;;;5.50;4.33;;;17.00;16.70;;;;;;5057507;28;20418;-76
2022/04/18 12:58:40;;;;;;;5.27;3.87;;;17.10;16.90;;;;;;5057822;28;20446;-77
2022/04/18 13:01:08;;;;;;;5.07;4.43;;;16.90;17.30;;;;;;5057796;28;20452;-78
2022/04/18 13:03:43;;;;;;;4.27;3.87;;;17.20;16.50;;;;;;5058205;28;20416;-77
2022/04/18 13:06:10;;;;;;;4.43;4.03;;;17.20;16.50;;;;;;5057596;28;20506;-77
2022/04/18 13:08:38;;;;;;;4.30;3.80;;;17.20;16.00;;;;;;5058825;28;20416;-76
2022/04/18 13:11:05;;;;;;;5.30;3.53;;;17.10;16.40;;;;;;5060562;28;20447;-77
2022/04/18 13:13:32;;;;;;;4.20;3.80;;;17.00;16.60;;;;;;5066381;28;20445;-77
2022/04/18 13:16:20;;;;;;;5.07;4.13;;;17.20;16.40;;;;;;5068011;28;20520;-78
2022/04/18 13:18:47;;;;;;;7.03;4.27;;;17.20;16.40;;;;;;5067752;28;20821;-77
2022/04/18 13:21:14;;;;;;;4.73;4.10;;;17.40;16.50;;;;;;5072633;28;20457;-77
2022/04/18 13:23:41;;;;;;;6.37;3.87;;;17.60;15.50;;;;;;5070210;28;20427;-74
2022/04/18 13:26:08;;;;;;;4.20;3.57;;;17.70;16.20;;;;;;5063627;28;20432;-77
2022/04/18 13:28:38;;;;;;;6.80;4.20;;;17.90;15.60;;;;;;5057794;28;20477;-74